createdAt,value
2022-10-12T00:00:22.625Z,73.43
2022-10-12T00:01:15.865Z,73.42
2022-10-12T00:01:49.173Z,73.38
2022-10-12T00:02:22.790Z,73.51
2022-10-12T00:02:55.946Z,73.37
2022-10-12T00:03:29.226Z,73.48
2022-10-12T00:04:02.554Z,73.54
2022-10-12T00:04:35.671Z,73.53
2022-10-12T00:05:09.096Z,73.49
2022-10-12T00:05:42.367Z,73.52
2022-10-12T00:06:15.442Z,73.49
2022-10-12T00:06:48.737Z,73.50
2022-10-12T00:07:21.981Z,73.66
2022-10-12T00:07:55.151Z,73.51
2022-10-12T00:08:28.589Z,73.46
2022-10-12T00:09:01.920Z,73.54
2022-10-12T00:09:35.636Z,73.56
2022-10-12T00:10:09.326Z,73.55
2022-10-12T00:10:44.115Z,73.48
2022-10-12T00:11:23.345Z,73.53
2022-10-12T00:11:56.474Z,73.48
2022-10-12T00:12:29.661Z,73.41
2022-10-12T00:13:02.808Z,73.50
2022-10-12T00:13:36.261Z,73.54
2022-10-12T00:14:09.429Z,73.51
2022-10-12T00:14:42.625Z,73.36
2022-10-12T00:15:16.414Z,73.36
2022-10-12T00:15:49.934Z,73.21
2022-10-12T00:16:24.048Z,73.29
2022-10-12T00:16:57.162Z,73.10
2022-10-12T00:17:30.271Z,73.08
2022-10-12T00:18:03.439Z,72.98
2022-10-12T00:18:37.529Z,72.98
2022-10-12T00:19:13.477Z,73.06
2022-10-12T00:19:46.698Z,72.98
2022-10-12T00:20:19.843Z,72.92
2022-10-12T00:21:05.125Z,72.96
2022-10-12T00:21:39.810Z,73.07
2022-10-12T00:22:12.894Z,72.96
2022-10-12T00:22:46.179Z,73.00
2022-10-12T00:23:19.205Z,73.02
2022-10-12T00:23:52.664Z,72.94
2022-10-12T00:24:25.903Z,72.99
2022-10-12T00:24:59.058Z,73.01
2022-10-12T00:25:32.270Z,72.92
2022-10-12T00:26:08.961Z,72.93
2022-10-12T00:26:42.007Z,72.81
2022-10-12T00:27:15.510Z,72.95
2022-10-12T00:27:48.739Z,72.94
2022-10-12T00:28:21.966Z,72.90
2022-10-12T00:29:01.905Z,73.05
2022-10-12T00:29:36.186Z,72.95
2022-10-12T00:30:10.150Z,72.94
2022-10-12T00:30:43.202Z,72.82
2022-10-12T00:31:19.451Z,72.88
2022-10-12T00:31:53.286Z,72.91
2022-10-12T00:32:26.604Z,72.94
2022-10-12T00:32:59.895Z,72.94
2022-10-12T00:33:33.014Z,73.01
2022-10-12T00:34:06.007Z,72.95
2022-10-12T00:34:39.131Z,73.00
2022-10-12T00:35:12.328Z,72.93
2022-10-12T00:35:45.404Z,72.82
2022-10-12T00:36:24.679Z,72.83
2022-10-12T00:36:57.843Z,72.82
2022-10-12T00:37:31.032Z,72.66
2022-10-12T00:38:04.093Z,72.86
2022-10-12T00:38:37.153Z,72.84
2022-10-12T00:39:11.646Z,72.91
2022-10-12T00:39:44.944Z,72.87
2022-10-12T00:40:18.243Z,72.92
2022-10-12T00:40:51.349Z,72.89
2022-10-12T00:41:36.582Z,72.86
2022-10-12T00:42:13.752Z,72.93
2022-10-12T00:42:49.424Z,72.83
2022-10-12T00:43:36.200Z,72.94
2022-10-12T00:44:45.396Z,73.01
2022-10-12T00:45:18.615Z,73.00
2022-10-12T00:45:51.898Z,73.07
2022-10-12T00:46:25.004Z,73.02
2022-10-12T00:47:00.757Z,72.99
2022-10-12T00:47:35.427Z,72.92
2022-10-12T00:48:08.848Z,72.92
2022-10-12T00:48:43.273Z,72.95
2022-10-12T00:49:23.807Z,73.01
2022-10-12T00:50:16.346Z,72.89
2022-10-12T00:50:50.037Z,72.86
2022-10-12T00:51:24.134Z,73.00
2022-10-12T00:52:03.695Z,73.12
2022-10-12T00:52:49.056Z,72.93
2022-10-12T00:53:26.514Z,72.96
2022-10-12T00:54:04.837Z,72.96
2022-10-12T00:54:43.550Z,72.97
2022-10-12T00:55:21.096Z,72.98
2022-10-12T00:56:01.575Z,73.02
2022-10-12T00:56:40.073Z,72.95
2022-10-12T00:57:15.528Z,73.03
2022-10-12T00:57:51.630Z,72.99
2022-10-12T00:58:24.786Z,73.02
2022-10-12T00:59:03.026Z,73.07
2022-10-12T00:59:46.463Z,73.07
2022-10-12T01:00:21.037Z,73.07
2022-10-12T01:00:54.238Z,73.05
2022-10-12T01:01:28.591Z,72.95
2022-10-12T01:02:02.183Z,73.05
2022-10-12T01:02:38.694Z,73.08
2022-10-12T01:03:15.848Z,72.98
2022-10-12T01:03:49.969Z,72.88
2022-10-12T01:04:24.861Z,73.01
2022-10-12T01:04:58.401Z,72.98
2022-10-12T01:05:31.575Z,73.03
2022-10-12T01:06:07.721Z,72.82
2022-10-12T01:06:41.598Z,72.98
2022-10-12T01:07:14.936Z,72.85
2022-10-12T01:07:48.200Z,72.77
2022-10-12T01:08:22.212Z,72.74
2022-10-12T01:08:55.514Z,72.78
2022-10-12T01:09:29.906Z,72.72
2022-10-12T01:10:03.986Z,72.74
2022-10-12T01:10:37.351Z,72.89
2022-10-12T01:11:10.467Z,72.93
2022-10-12T01:11:43.587Z,72.91
2022-10-12T01:12:17.217Z,72.87
2022-10-12T01:12:50.912Z,72.71
2022-10-12T01:13:24.051Z,72.99
2022-10-12T01:13:58.446Z,72.87
2022-10-12T01:14:31.627Z,72.79
2022-10-12T01:15:05.756Z,72.95
2022-10-12T01:16:04.963Z,72.96
2022-10-12T01:16:48.191Z,72.86
2022-10-12T01:17:42.272Z,72.73
2022-10-12T01:18:32.280Z,72.76
2022-10-12T01:19:32.658Z,72.73
2022-10-12T01:20:08.970Z,72.79
2022-10-12T01:20:53.692Z,72.82
2022-10-12T01:21:27.275Z,72.84
2022-10-12T01:22:07.619Z,72.85
2022-10-12T01:23:05.786Z,72.78
2022-10-12T01:23:57.316Z,72.89
2022-10-12T01:24:39.290Z,73.04
2022-10-12T01:25:21.492Z,72.85
2022-10-12T01:26:27.808Z,72.97
2022-10-12T01:27:28.034Z,72.87
2022-10-12T01:28:29.769Z,72.94
2022-10-12T01:29:18.617Z,73.12
2022-10-12T01:30:11.903Z,73.11
2022-10-12T01:30:52.011Z,73.06
2022-10-12T01:31:32.907Z,73.22
2022-10-12T01:32:25.945Z,73.20
2022-10-12T01:33:04.970Z,72.94
2022-10-12T01:33:48.907Z,72.98
2022-10-12T01:34:37.445Z,72.92
2022-10-12T01:35:20.676Z,72.93
2022-10-12T01:36:05.838Z,72.99
2022-10-12T01:36:49.138Z,72.90
2022-10-12T01:37:43.534Z,72.89
2022-10-12T01:38:21.841Z,73.03
2022-10-12T01:39:10.041Z,72.78
2022-10-12T01:39:50.492Z,73.05
2022-10-12T01:40:37.680Z,72.89
2022-10-12T01:41:27.544Z,72.87
2022-10-12T01:42:09.823Z,72.91
2022-10-12T01:42:44.801Z,72.64
2022-10-12T01:43:18.782Z,72.94
2022-10-12T01:43:53.021Z,72.73
2022-10-12T01:44:27.333Z,72.80
2022-10-12T01:45:09.856Z,72.92
2022-10-12T01:45:42.731Z,72.95
2022-10-12T01:46:15.826Z,72.91
2022-10-12T01:46:50.325Z,72.89
2022-10-12T01:47:23.398Z,73.03
2022-10-12T01:47:56.808Z,73.05
2022-10-12T01:48:29.940Z,72.90
2022-10-12T01:49:03.240Z,73.03
2022-10-12T01:49:36.829Z,73.25
2022-10-12T01:50:13.309Z,73.18
2022-10-12T01:50:52.658Z,72.97
2022-10-12T01:51:47.055Z,73.01
2022-10-12T01:52:30.051Z,73.03
2022-10-12T01:53:19.599Z,72.80
2022-10-12T01:54:03.966Z,73.07
2022-10-12T01:54:56.009Z,72.91
2022-10-12T01:55:43.884Z,72.91
2022-10-12T01:56:27.306Z,73.02
2022-10-12T01:57:12.287Z,73.01
2022-10-12T01:58:00.442Z,73.01
2022-10-12T01:58:45.319Z,72.92
2022-10-12T01:59:34.966Z,73.01
2022-10-12T02:00:11.746Z,73.04
2022-10-12T02:01:07.861Z,72.97
2022-10-12T02:02:04.075Z,73.07
2022-10-12T02:03:08.125Z,72.94
2022-10-12T02:03:55.215Z,73.00
2022-10-12T02:04:37.885Z,73.27
2022-10-12T02:05:23.096Z,73.02
2022-10-12T02:06:17.166Z,72.96
2022-10-12T02:06:54.569Z,73.06
2022-10-12T02:07:40.337Z,73.06
2022-10-12T02:08:13.748Z,73.20
2022-10-12T02:08:57.161Z,73.05
2022-10-12T02:09:34.457Z,73.04
2022-10-12T02:10:16.218Z,73.12
2022-10-12T02:10:59.403Z,73.24
2022-10-12T02:11:36.070Z,73.03
2022-10-12T02:12:15.954Z,72.96
2022-10-12T02:12:50.468Z,72.93
2022-10-12T02:13:27.953Z,73.06
2022-10-12T02:14:12.936Z,73.07
2022-10-12T02:14:54.331Z,73.16
2022-10-12T02:15:28.998Z,73.16
2022-10-12T02:16:07.605Z,72.95
2022-10-12T02:16:48.712Z,72.97
2022-10-12T02:17:23.448Z,73.10
2022-10-12T02:17:58.126Z,73.18
2022-10-12T02:18:33.671Z,73.28
2022-10-12T02:19:11.426Z,73.09
2022-10-12T02:19:53.127Z,73.03
2022-10-12T02:20:28.092Z,73.11
2022-10-12T02:21:04.063Z,73.10
2022-10-12T02:21:38.721Z,73.13
2022-10-12T02:22:13.653Z,73.15
2022-10-12T02:22:50.250Z,73.11
2022-10-12T02:23:25.190Z,72.89
2022-10-12T02:24:01.676Z,73.10
2022-10-12T02:24:37.669Z,72.97
2022-10-12T02:25:14.511Z,72.82
2022-10-12T02:25:49.493Z,72.82
2022-10-12T02:26:23.645Z,72.94
2022-10-12T02:26:57.372Z,73.07
2022-10-12T02:27:35.171Z,72.99
2022-10-12T02:28:15.662Z,72.78
2022-10-12T02:28:51.201Z,72.79
2022-10-12T02:29:47.375Z,72.88
2022-10-12T02:30:21.301Z,72.80
2022-10-12T02:31:02.998Z,72.97
2022-10-12T02:31:54.836Z,72.79
2022-10-12T02:32:40.546Z,72.71
2022-10-12T02:33:24.042Z,72.80
2022-10-12T02:34:19.785Z,72.77
2022-10-12T02:35:02.991Z,72.78
2022-10-12T02:35:53.045Z,72.77
2022-10-12T02:36:48.535Z,72.74
2022-10-12T02:37:40.899Z,72.75
2022-10-12T02:38:28.329Z,72.80
2022-10-12T02:39:20.606Z,72.76
2022-10-12T02:40:13.101Z,72.79
2022-10-12T02:41:09.120Z,72.63
2022-10-12T02:41:48.127Z,72.54
2022-10-12T02:42:27.789Z,72.78
2022-10-12T02:43:13.409Z,72.69
2022-10-12T02:43:56.666Z,72.54
2022-10-12T02:44:34.420Z,72.60
2022-10-12T02:45:10.607Z,72.67
2022-10-12T02:45:47.654Z,72.70
2022-10-12T02:46:24.799Z,72.63
2022-10-12T02:47:00.852Z,72.68
2022-10-12T02:47:37.090Z,72.74
2022-10-12T02:48:15.369Z,72.69
2022-10-12T02:48:50.630Z,72.81
2022-10-12T02:49:27.211Z,72.65
2022-10-12T02:50:01.291Z,72.65
2022-10-12T02:50:35.178Z,72.45
2022-10-12T02:51:10.263Z,72.50
2022-10-12T02:51:44.733Z,72.38
2022-10-12T02:52:18.070Z,72.38
2022-10-12T02:52:53.158Z,72.09
2022-10-12T02:53:28.959Z,72.27
2022-10-12T02:54:03.384Z,72.23
2022-10-12T02:54:36.871Z,72.02
2022-10-12T02:55:11.647Z,72.20
2022-10-12T02:55:53.795Z,71.98
2022-10-12T02:56:27.077Z,72.26
2022-10-12T02:57:00.214Z,72.22
2022-10-12T02:57:33.495Z,72.12
2022-10-12T02:58:06.595Z,72.31
2022-10-12T02:58:42.319Z,72.18
2022-10-12T02:59:17.761Z,72.33
2022-10-12T02:59:50.976Z,72.09
2022-10-12T03:00:24.025Z,72.23
2022-10-12T03:00:57.214Z,71.96
2022-10-12T03:01:30.438Z,71.96
2022-10-12T03:02:03.565Z,72.13
2022-10-12T03:02:36.803Z,72.08
2022-10-12T03:03:10.056Z,71.98
2022-10-12T03:03:44.285Z,72.00
2022-10-12T03:04:17.474Z,71.89
2022-10-12T03:04:50.704Z,71.92
2022-10-12T03:05:23.667Z,71.98
2022-10-12T03:05:57.119Z,71.98
2022-10-12T03:06:30.126Z,71.94
2022-10-12T03:07:03.732Z,72.09
2022-10-12T03:07:37.125Z,71.88
2022-10-12T03:08:10.595Z,71.87
2022-10-12T03:08:43.656Z,71.73
2022-10-12T03:09:16.687Z,71.68
2022-10-12T03:09:49.656Z,71.86
2022-10-12T03:10:22.741Z,71.85
2022-10-12T03:11:00.703Z,71.88
2022-10-12T03:11:33.781Z,71.84
2022-10-12T03:12:06.734Z,71.71
2022-10-12T03:12:39.799Z,71.76
2022-10-12T03:13:13.211Z,71.96
2022-10-12T03:13:46.467Z,71.73
2022-10-12T03:14:21.440Z,71.86
2022-10-12T03:14:54.530Z,71.73
2022-10-12T03:15:27.757Z,71.71
2022-10-12T03:16:05.480Z,71.80
2022-10-12T03:16:38.773Z,71.65
2022-10-12T03:17:11.975Z,71.78
2022-10-12T03:17:45.229Z,71.81
2022-10-12T03:18:19.264Z,71.56
2022-10-12T03:18:52.494Z,71.61
2022-10-12T03:19:25.483Z,71.78
2022-10-12T03:19:58.486Z,71.71
2022-10-12T03:20:31.693Z,71.56
2022-10-12T03:21:05.327Z,71.61
2022-10-12T03:21:38.426Z,71.61
2022-10-12T03:22:11.531Z,71.35
2022-10-12T03:22:44.755Z,71.53
2022-10-12T03:23:17.772Z,71.42
2022-10-12T03:23:51.022Z,71.70
2022-10-12T03:24:24.475Z,71.63
2022-10-12T03:25:00.343Z,71.49
2022-10-12T03:25:33.809Z,71.68
2022-10-12T03:26:07.223Z,71.57
2022-10-12T03:26:40.549Z,71.64
2022-10-12T03:27:13.752Z,71.45
2022-10-12T03:27:46.962Z,71.70
2022-10-12T03:28:20.599Z,71.74
2022-10-12T03:28:53.890Z,71.65
2022-10-12T03:29:27.159Z,71.70
2022-10-12T03:30:00.543Z,71.63
2022-10-12T03:30:33.831Z,71.63
2022-10-12T03:31:06.919Z,71.69
2022-10-12T03:31:40.045Z,71.66
2022-10-12T03:32:13.118Z,71.62
2022-10-12T03:32:46.539Z,71.43
2022-10-12T03:33:19.806Z,71.61
2022-10-12T03:33:53.093Z,71.49
2022-10-12T03:34:26.206Z,71.51
2022-10-12T03:34:59.325Z,71.48
2022-10-12T03:35:32.461Z,71.54
2022-10-12T03:36:06.191Z,71.52
2022-10-12T03:36:39.283Z,71.45
2022-10-12T03:37:12.374Z,71.33
2022-10-12T03:37:45.384Z,71.19
2022-10-12T03:38:19.691Z,71.31
2022-10-12T03:38:53.079Z,71.43
2022-10-12T03:39:26.113Z,71.33
2022-10-12T03:39:59.241Z,71.44
2022-10-12T03:40:32.703Z,71.45
2022-10-12T03:41:06.936Z,71.53
2022-10-12T03:41:40.334Z,71.48
2022-10-12T03:42:14.221Z,71.43
2022-10-12T03:42:47.505Z,71.33
2022-10-12T03:43:20.623Z,71.19
2022-10-12T03:43:53.920Z,71.27
2022-10-12T03:44:27.267Z,71.12
2022-10-12T03:45:00.511Z,71.30
2022-10-12T03:45:34.115Z,70.85
2022-10-12T03:46:07.167Z,71.22
2022-10-12T03:46:40.415Z,71.31
2022-10-12T03:47:13.714Z,71.00
2022-10-12T03:47:48.247Z,71.15
2022-10-12T03:48:21.554Z,70.92
2022-10-12T03:48:54.705Z,70.99
2022-10-12T03:49:27.889Z,70.99
2022-10-12T03:50:01.112Z,70.94
2022-10-12T03:50:35.554Z,71.04
2022-10-12T03:51:08.881Z,71.12
2022-10-12T03:51:42.269Z,71.23
2022-10-12T03:52:15.845Z,71.05
2022-10-12T03:52:49.088Z,70.95
2022-10-12T03:53:22.382Z,71.10
2022-10-12T03:53:55.516Z,71.18
2022-10-12T03:54:28.596Z,71.09
2022-10-12T03:55:01.926Z,71.13
2022-10-12T03:55:35.249Z,71.40
2022-10-12T03:56:08.282Z,71.21
2022-10-12T03:56:41.373Z,71.35
2022-10-12T03:57:14.547Z,71.29
2022-10-12T03:57:47.675Z,71.21
2022-10-12T03:58:20.981Z,71.10
2022-10-12T03:58:54.084Z,71.12
2022-10-12T03:59:27.249Z,71.09
2022-10-12T04:00:00.350Z,71.07
2022-10-12T04:00:33.634Z,71.33
2022-10-12T04:01:06.898Z,70.97
2022-10-12T04:01:39.985Z,70.98
2022-10-12T04:02:16.714Z,70.96
2022-10-12T04:02:50.297Z,71.04
2022-10-12T04:03:23.471Z,70.84
2022-10-12T04:03:56.601Z,70.94
2022-10-12T04:04:29.557Z,71.08
2022-10-12T04:05:03.584Z,70.67
2022-10-12T04:05:36.825Z,70.92
2022-10-12T04:06:10.041Z,70.88
2022-10-12T04:06:43.261Z,70.82
2022-10-12T04:07:16.513Z,70.83
2022-10-12T04:07:50.064Z,70.89
2022-10-12T04:08:24.076Z,71.00
2022-10-12T04:08:57.318Z,70.89
2022-10-12T04:09:30.430Z,71.11
2022-10-12T04:10:04.392Z,71.19
2022-10-12T04:10:37.553Z,71.14
2022-10-12T04:11:10.829Z,71.04
2022-10-12T04:11:44.006Z,71.06
2022-10-12T04:12:17.220Z,71.39
2022-10-12T04:12:50.330Z,71.16
2022-10-12T04:13:25.054Z,70.95
2022-10-12T04:13:58.290Z,70.89
2022-10-12T04:14:31.339Z,71.10
2022-10-12T04:15:05.247Z,70.96
2022-10-12T04:15:38.233Z,71.06
2022-10-12T04:16:11.921Z,71.02
2022-10-12T04:16:45.002Z,71.12
2022-10-12T04:17:19.482Z,71.12
2022-10-12T04:17:53.370Z,70.87
2022-10-12T04:18:26.476Z,70.99
2022-10-12T04:18:59.701Z,71.12
2022-10-12T04:19:32.915Z,71.05
2022-10-12T04:20:07.242Z,71.11
2022-10-12T04:20:40.466Z,71.46
2022-10-12T04:21:16.204Z,71.19
2022-10-12T04:21:49.380Z,71.24
2022-10-12T04:22:24.199Z,71.29
2022-10-12T04:22:57.240Z,71.28
2022-10-12T04:23:30.341Z,71.04
2022-10-12T04:24:03.674Z,71.47
2022-10-12T04:24:36.818Z,71.34
2022-10-12T04:25:12.091Z,71.20
2022-10-12T04:25:45.324Z,71.23
2022-10-12T04:26:18.588Z,71.24
2022-10-12T04:26:51.757Z,71.03
2022-10-12T04:27:24.856Z,70.96
2022-10-12T04:27:57.881Z,70.93
2022-10-12T04:28:31.098Z,70.83
2022-10-12T04:29:05.236Z,70.90
2022-10-12T04:29:38.648Z,70.62
2022-10-12T04:30:12.667Z,70.84
2022-10-12T04:30:46.447Z,70.77
2022-10-12T04:31:19.433Z,70.77
2022-10-12T04:31:52.533Z,70.84
2022-10-12T04:32:25.679Z,70.72
2022-10-12T04:32:58.766Z,70.82
2022-10-12T04:33:32.360Z,70.88
2022-10-12T04:34:05.437Z,70.93
2022-10-12T04:34:38.661Z,70.94
2022-10-12T04:35:12.097Z,70.90
2022-10-12T04:35:45.319Z,70.89
2022-10-12T04:36:18.330Z,70.99
2022-10-12T04:36:51.401Z,71.02
2022-10-12T04:37:26.465Z,70.93
2022-10-12T04:37:59.572Z,70.99
2022-10-12T04:38:32.734Z,71.17
2022-10-12T04:39:06.012Z,71.12
2022-10-12T04:39:39.097Z,71.06
2022-10-12T04:40:12.449Z,70.98
2022-10-12T04:40:49.825Z,70.95
2022-10-12T04:41:22.990Z,70.82
2022-10-12T04:41:56.487Z,70.94
2022-10-12T04:42:29.722Z,70.88
2022-10-12T04:43:02.872Z,70.91
2022-10-12T04:43:36.191Z,70.91
2022-10-12T04:44:09.560Z,71.02
2022-10-12T04:44:42.689Z,70.91
2022-10-12T04:45:15.944Z,71.15
2022-10-12T04:45:58.934Z,71.03
2022-10-12T04:46:32.589Z,70.85
2022-10-12T04:47:05.704Z,70.95
2022-10-12T04:47:39.411Z,70.97
2022-10-12T04:48:12.835Z,70.90
2022-10-12T04:48:45.983Z,70.96
2022-10-12T04:49:19.297Z,70.94
2022-10-12T04:49:52.472Z,71.10
2022-10-12T04:50:29.896Z,71.04
2022-10-12T04:51:03.569Z,70.88
2022-10-12T04:51:36.700Z,70.97
2022-10-12T04:52:10.077Z,70.96
2022-10-12T04:52:43.213Z,70.89
2022-10-12T04:53:16.289Z,70.79
2022-10-12T04:53:49.416Z,70.63
2022-10-12T04:54:22.445Z,70.89
2022-10-12T04:54:55.560Z,70.81
2022-10-12T04:55:29.416Z,70.67
2022-10-12T04:56:04.565Z,70.95
2022-10-12T04:56:38.319Z,71.08
2022-10-12T04:57:11.627Z,70.86
2022-10-12T04:57:45.018Z,70.99
2022-10-12T04:58:18.273Z,70.99
2022-10-12T04:58:51.387Z,71.09
2022-10-12T04:59:24.580Z,70.77
2022-10-12T04:59:57.684Z,71.17
2022-10-12T05:00:30.765Z,71.29
2022-10-12T05:01:03.922Z,71.17
2022-10-12T05:01:37.253Z,71.07
2022-10-12T05:02:10.356Z,71.35
2022-10-12T05:02:43.508Z,70.95
2022-10-12T05:03:16.822Z,71.11
2022-10-12T05:03:50.061Z,70.88
2022-10-12T05:04:23.230Z,70.96
2022-10-12T05:04:56.470Z,71.02
2022-10-12T05:05:29.721Z,71.08
2022-10-12T05:06:02.863Z,70.93
2022-10-12T05:06:35.992Z,71.01
2022-10-12T05:07:09.082Z,70.79
2022-10-12T05:07:42.192Z,70.92
2022-10-12T05:08:15.526Z,71.03
2022-10-12T05:08:48.545Z,71.21
2022-10-12T05:09:21.936Z,71.22
2022-10-12T05:09:55.089Z,71.04
2022-10-12T05:10:28.498Z,71.27
2022-10-12T05:11:02.046Z,71.00
2022-10-12T05:11:35.348Z,71.18
2022-10-12T05:12:08.591Z,71.32
2022-10-12T05:12:42.887Z,71.09
2022-10-12T05:13:16.250Z,71.23
2022-10-12T05:13:49.523Z,71.37
2022-10-12T05:14:22.711Z,71.19
2022-10-12T05:14:55.908Z,71.11
2022-10-12T05:15:29.032Z,71.09
2022-10-12T05:16:02.119Z,71.19
2022-10-12T05:16:35.415Z,71.13
2022-10-12T05:17:08.517Z,71.18
2022-10-12T05:17:41.633Z,71.04
2022-10-12T05:18:14.764Z,70.81
2022-10-12T05:18:48.117Z,70.98
2022-10-12T05:19:21.203Z,70.86
2022-10-12T05:19:54.324Z,70.84
2022-10-12T05:20:27.496Z,70.88
2022-10-12T05:21:00.589Z,70.93
2022-10-12T05:21:34.063Z,70.79
2022-10-12T05:22:07.288Z,70.85
2022-10-12T05:22:40.765Z,70.69
2022-10-12T05:23:14.338Z,70.68
2022-10-12T05:23:53.627Z,70.99
2022-10-12T05:24:26.613Z,70.84
2022-10-12T05:24:59.883Z,70.78
2022-10-12T05:25:35.460Z,70.75
2022-10-12T05:26:08.702Z,70.89
2022-10-12T05:26:41.844Z,70.80
2022-10-12T05:27:15.246Z,70.82
2022-10-12T05:27:48.449Z,70.83
2022-10-12T05:28:21.980Z,70.88
2022-10-12T05:28:55.155Z,71.14
2022-10-12T05:29:28.487Z,70.90
2022-10-12T05:30:01.698Z,71.01
2022-10-12T05:30:35.338Z,71.16
2022-10-12T05:31:08.989Z,71.06
2022-10-12T05:31:42.134Z,71.13
2022-10-12T05:32:15.734Z,71.15
2022-10-12T05:32:49.543Z,71.15
2022-10-12T05:33:22.669Z,71.01
2022-10-12T05:33:56.266Z,70.99
2022-10-12T05:34:29.561Z,71.06
2022-10-12T05:35:03.290Z,70.92
2022-10-12T05:35:36.627Z,71.13
2022-10-12T05:36:09.769Z,71.34
2022-10-12T05:36:43.134Z,71.07
2022-10-12T05:37:16.651Z,71.17
2022-10-12T05:37:50.038Z,71.05
2022-10-12T05:38:23.066Z,71.20
2022-10-12T05:38:56.359Z,71.28
2022-10-12T05:39:29.449Z,71.20
2022-10-12T05:40:03.288Z,71.30
2022-10-12T05:40:36.528Z,71.11
2022-10-12T05:41:09.641Z,71.27
2022-10-12T05:41:42.840Z,71.26
2022-10-12T05:42:16.661Z,71.30
2022-10-12T05:42:49.947Z,71.24
2022-10-12T05:43:23.174Z,71.19
2022-10-12T05:43:56.379Z,71.18
2022-10-12T05:44:29.623Z,71.42
2022-10-12T05:45:04.064Z,71.39
2022-10-12T05:45:37.279Z,71.53
2022-10-12T05:46:14.283Z,71.42
2022-10-12T05:46:47.882Z,71.60
2022-10-12T05:47:20.979Z,71.33
2022-10-12T05:47:54.050Z,71.37
2022-10-12T05:48:27.419Z,71.61
2022-10-12T05:49:00.776Z,71.54
2022-10-12T05:49:34.931Z,71.51
2022-10-12T05:50:08.688Z,71.79
2022-10-12T05:50:41.961Z,71.58
2022-10-12T05:51:15.355Z,71.72
2022-10-12T05:51:48.705Z,71.53
2022-10-12T05:52:22.355Z,71.70
2022-10-12T05:52:55.489Z,71.76
2022-10-12T05:53:28.647Z,71.63
2022-10-12T05:54:01.768Z,71.89
2022-10-12T05:54:35.394Z,71.83
2022-10-12T05:55:08.883Z,71.83
2022-10-12T05:56:01.313Z,71.98
2022-10-12T05:56:34.536Z,72.07
2022-10-12T05:57:07.585Z,72.01
2022-10-12T05:57:41.082Z,71.95
2022-10-12T05:58:14.158Z,72.20
2022-10-12T05:58:47.540Z,72.19
2022-10-12T05:59:20.646Z,72.17
2022-10-12T05:59:53.844Z,72.16
2022-10-12T06:00:27.206Z,72.28
2022-10-12T06:01:12.779Z,72.31
2022-10-12T06:01:46.096Z,72.27
2022-10-12T06:02:19.829Z,72.28
2022-10-12T06:02:53.110Z,72.46
2022-10-12T06:03:26.725Z,72.44
2022-10-12T06:04:00.525Z,72.40
2022-10-12T06:04:33.525Z,72.46
2022-10-12T06:05:07.075Z,72.35
2022-10-12T06:05:40.293Z,72.54
2022-10-12T06:06:13.466Z,72.65
2022-10-12T06:06:46.791Z,72.77
2022-10-12T06:07:20.091Z,72.53
2022-10-12T06:07:53.063Z,72.87
2022-10-12T06:08:26.668Z,72.81
2022-10-12T06:08:59.835Z,73.13
2022-10-12T06:09:33.375Z,73.21
2022-10-12T06:10:06.967Z,73.25
2022-10-12T06:10:51.813Z,73.36
2022-10-12T06:11:25.020Z,73.26
2022-10-12T06:11:58.224Z,73.35
2022-10-12T06:12:31.381Z,73.44
2022-10-12T06:13:04.580Z,73.40
2022-10-12T06:13:37.811Z,73.36
2022-10-12T06:14:10.858Z,73.51
2022-10-12T06:14:44.177Z,73.67
2022-10-12T06:15:17.388Z,73.52
2022-10-12T06:15:50.557Z,73.71
2022-10-12T06:16:23.639Z,73.63
2022-10-12T06:16:57.081Z,73.73
2022-10-12T06:17:30.277Z,73.81
2022-10-12T06:18:03.458Z,74.05
2022-10-12T06:18:36.623Z,73.95
2022-10-12T06:19:12.128Z,73.96
2022-10-12T06:19:45.381Z,74.12
2022-10-12T06:20:18.382Z,74.20
2022-10-12T06:21:20.951Z,74.20
2022-10-12T06:21:47.216Z,74.19
2022-10-12T06:22:20.359Z,74.34
2022-10-12T06:22:53.584Z,74.33
2022-10-12T06:23:27.224Z,74.44
2022-10-12T06:24:00.752Z,74.46
2022-10-12T06:24:33.951Z,74.45
2022-10-12T06:25:07.865Z,74.61
2022-10-12T06:25:41.597Z,74.65
2022-10-12T06:26:15.057Z,74.56
2022-10-12T06:26:48.252Z,74.73
2022-10-12T06:27:21.441Z,74.86
2022-10-12T06:27:54.473Z,74.95
2022-10-12T06:28:27.678Z,75.09
2022-10-12T06:29:01.158Z,75.09
2022-10-12T06:29:36.171Z,75.09
2022-10-12T06:30:09.817Z,75.12
2022-10-12T06:30:43.558Z,75.26
2022-10-12T06:31:16.802Z,75.32
2022-10-12T06:31:51.892Z,75.46
2022-10-12T06:32:25.280Z,75.47
2022-10-12T06:32:58.474Z,75.42
2022-10-12T06:33:31.604Z,75.46
2022-10-12T06:34:05.016Z,75.50
2022-10-12T06:34:38.540Z,75.58
2022-10-12T06:35:11.883Z,75.62
2022-10-12T06:35:45.114Z,75.54
2022-10-12T06:36:18.659Z,75.80
2022-10-12T06:36:52.573Z,75.72
2022-10-12T06:37:48.526Z,75.75
2022-10-12T06:38:19.231Z,75.65
2022-10-12T06:38:52.796Z,75.68
2022-10-12T06:39:25.953Z,75.67
2022-10-12T06:39:59.293Z,75.70
2022-10-12T06:40:32.568Z,75.85
2022-10-12T06:41:05.727Z,75.77
2022-10-12T06:41:39.398Z,75.76
2022-10-12T06:42:12.559Z,75.78
2022-10-12T06:42:45.826Z,75.71
2022-10-12T06:43:19.162Z,75.81
2022-10-12T06:43:52.585Z,75.75
2022-10-12T06:44:25.694Z,75.80
2022-10-12T06:44:58.712Z,75.77
2022-10-12T06:45:32.315Z,75.79
2022-10-12T06:46:05.675Z,75.89
2022-10-12T06:46:38.925Z,75.88
2022-10-12T06:47:12.211Z,75.84
2022-10-12T06:47:45.499Z,75.92
2022-10-12T06:48:19.125Z,75.98
2022-10-12T06:48:52.277Z,76.03
2022-10-12T06:49:26.230Z,75.98
2022-10-12T06:49:59.414Z,75.98
2022-10-12T06:50:32.644Z,76.08
2022-10-12T06:51:06.042Z,76.10
2022-10-12T06:51:39.393Z,76.00
2022-10-12T06:52:12.729Z,76.01
2022-10-12T06:52:47.472Z,76.05
2022-10-12T06:53:20.739Z,76.06
2022-10-12T06:53:56.969Z,76.12
2022-10-12T06:54:30.157Z,76.08
2022-10-12T06:55:04.154Z,76.16
2022-10-12T06:55:40.115Z,76.05
2022-10-12T06:56:13.471Z,75.98
2022-10-12T06:56:46.487Z,76.06
2022-10-12T06:57:19.565Z,76.08
2022-10-12T06:57:52.872Z,76.27
2022-10-12T06:58:26.121Z,76.09
2022-10-12T06:58:59.409Z,76.03
2022-10-12T06:59:32.518Z,76.14
2022-10-12T07:00:08.195Z,76.00
2022-10-12T07:00:41.698Z,76.05
2022-10-12T07:01:14.836Z,76.02
2022-10-12T07:01:48.121Z,75.96
2022-10-12T07:02:21.307Z,76.08
2022-10-12T07:02:54.327Z,76.06
2022-10-12T07:03:27.393Z,75.97
2022-10-12T07:04:01.073Z,75.84
2022-10-12T07:04:34.282Z,75.96
2022-10-12T07:05:08.303Z,76.12
2022-10-12T07:05:41.549Z,76.02
2022-10-12T07:06:15.250Z,76.01
2022-10-12T07:06:48.581Z,75.99
2022-10-12T07:07:21.668Z,76.04
2022-10-12T07:07:54.932Z,76.03
2022-10-12T07:08:28.094Z,75.94
2022-10-12T07:09:02.211Z,75.97
2022-10-12T07:09:35.645Z,76.09
2022-10-12T07:10:09.385Z,75.98
2022-10-12T07:10:42.528Z,76.11
2022-10-12T07:11:16.195Z,76.16
2022-10-12T07:11:49.405Z,76.14
2022-10-12T07:12:22.395Z,76.15
2022-10-12T07:12:55.367Z,76.24
2022-10-12T07:13:29.209Z,76.29
2022-10-12T07:14:02.349Z,76.13
2022-10-12T07:14:35.608Z,76.27
2022-10-12T07:15:09.146Z,76.27
2022-10-12T07:15:42.315Z,76.20
2022-10-12T07:16:15.871Z,76.26
2022-10-12T07:16:52.943Z,76.28
2022-10-12T07:17:28.341Z,76.19
2022-10-12T07:18:01.471Z,76.33
2022-10-12T07:18:34.893Z,76.27
2022-10-12T07:19:08.208Z,76.24
2022-10-12T07:19:41.221Z,76.30
2022-10-12T07:20:14.275Z,76.30
2022-10-12T07:20:47.729Z,76.37
2022-10-12T07:21:20.921Z,76.44
2022-10-12T07:21:53.991Z,76.53
2022-10-12T07:22:27.390Z,76.41
2022-10-12T07:23:00.705Z,76.47
2022-10-12T07:23:35.201Z,76.36
2022-10-12T07:24:12.885Z,76.48
2022-10-12T07:24:45.994Z,76.47
2022-10-12T07:25:19.174Z,76.29
2022-10-12T07:25:53.023Z,76.39
2022-10-12T07:26:26.408Z,76.51
2022-10-12T07:26:59.499Z,76.61
2022-10-12T07:27:32.529Z,76.42
2022-10-12T07:28:06.780Z,76.50
2022-10-12T07:28:39.901Z,76.60
2022-10-12T07:29:13.066Z,76.61
2022-10-12T07:29:46.260Z,76.59
2022-10-12T07:30:19.593Z,76.62
2022-10-12T07:30:52.955Z,76.65
2022-10-12T07:31:26.129Z,76.60
2022-10-12T07:32:00.128Z,76.50
2022-10-12T07:32:33.227Z,76.65
2022-10-12T07:33:06.285Z,76.45
2022-10-12T07:33:39.564Z,76.71
2022-10-12T07:34:12.695Z,76.63
2022-10-12T07:34:45.838Z,76.47
2022-10-12T07:35:19.060Z,76.41
2022-10-12T07:36:13.321Z,76.41
2022-10-12T07:36:59.226Z,76.38
2022-10-12T07:37:32.910Z,76.09
2022-10-12T07:38:06.947Z,76.12